默认 日期 大小 文件数 浏览量 最新下载 xml
2013磁力链接相关资源由用户搜索指令自动获取,结果来源于网络,本站不存储任何资料,亦不承担任何责任,请于24小时内删除,搜索到388420个磁力,显示前4000条数据,用时23ms。
    ... ).mp3": 3836428, "Rhigo - Primitivo CD 2013 (320 kbps)": {"10-PRIMITIVO.mp3 ... , "000-passenger-all_the_little_lights-(limited_deluxe_edition)-2cd-2013-scan.jpg": 3954998}
创建时间: 2018-10-28 01:45:39 大小:194.62 MB 文件数量:35 热度:45 最近下载:2025-10-10 16:59:01
    {"Бернадский С. - Продающие тексты - 2013.fb2": 932508, "Бернадский С. - Продающие тексты - 2013.pdf": 1626680, "Бернадский С. - Продающие тексты - 2013 (2).pdf": 929414}
创建时间: 2018-10-28 01:45:49 大小:3.33 MB 文件数量:3 热度:13 最近下载:2024-11-18 15:12:01
    {"RARBG.com.txt": 34, "Tainted.White.Girls.2.XXX": {"Tainted.White.Girls.2.XXX.a.mp4": 292170135, "Tainted.White.Girls.2.XXX.b.mp4": 294178867, "Tainted.White.Girls.2.XXX.c.mp4": 214551146, "Tainted.White.Girls.2.XXX.d.mp4": 280226056}}
创建时间: 2018-10-28 01:46:58 大小:1.01 GB 文件数量:5 热度:41 最近下载:2025-08-25 11:52:01
    {"The.Secret.Life.of.Walter.Mitty.2013.DVDRip.x264.BGAUDiO-SLSS.mkv": 837680179}
创建时间: 2018-10-28 01:46:59 大小:798.87 MB 文件数量:1 热度:40 最近下载:2025-08-02 21:43:07
    {"WWW.YIFY-TORRENTS.COM.jpg": 130677, "The.Watsons.Go.to.Birmingham.2013.1080p.BluRay.x264.YIFY.mp4": 1326461134}
创建时间: 2018-10-28 01:48:19 大小:1.24 GB 文件数量:2 热度:20 最近下载:2025-09-19 19:16:05
    {"01.mp3": 11136290, "02.mp3": 11355718, "03.mp3": 10973912, "04.mp3": 11151023, "05.mp3": 12419319, "06.mp3": 11680786, "07.mp3": 11008708, "08.mp3": 10966389, "09.mp3": 11328760, "10.mp3": 10944759, "11.mp3": 11377661, "12.mp3": 11227509, "13.mp3": ...
创建时间: 2018-10-28 01:49:20 大小:533.84 MB 文件数量:51 热度:29 最近下载:2025-08-26 05:11:02
    {"00.nfo": 36, "Downloaded From PublicHD.SE.txt": 92, "Puscifer.What.Is.720p.WEB-Dl.H264-Absinth.mkv": 3829060365}
创建时间: 2018-10-28 01:50:04 大小:3.57 GB 文件数量:3 热度:24 最近下载:2025-09-19 18:37:01
    {"Info": {"Info.Batman.Arkham Origins + 1 DLC.txt": 6450}, "eng.bin": 77345, "soft.bin": 17667078, "setup.exe": 310953, "game-1.bin": 3748426502, "game-2.bin": 1257439702, "game-3.bin": 1235294628, "game-4.bin": 15507925, "autorun.inf": 78, "setup-1.bin": ...
创建时间: 2018-10-28 01:50:36 大小:8.13 GB 文件数量:12 热度:25 最近下载:2025-08-26 07:17:01
    {"Folder.jpg": 34376, "1-05. Armin van Buuren - Pulsar.mp3": 15712407, "1-10. Armin van Buuren - In 10 Years From Now.mp3": 2302214, "1-14. Armin van Buuren - Who’s Afraid Of 138!.mp3": 13800273, "1-11. Armin van Buuren - Last Stop Before Heaven.mp3": ...
创建时间: 2018-10-28 01:52:44 大小:348.38 MB 文件数量:29 热度:44 最近下载:2025-09-17 11:10:09
    ... 脱壳1 Escape.Plan.2013.1080p.BluRay.x264.DTS-HD ...
创建时间: 2018-10-28 01:53:28 大小:2.92 GB 文件数量:9 热度:522 最近下载:2025-10-12 21:03:12
    {"Folder.jpg": 598896, "Back cover.jpg": 371513, "Front cover.jpg": 335974, "Rosi Braidotti - The Posthuman [2013][A].pdf": 1759422}
创建时间: 2018-10-28 01:58:40 大小:2.92 MB 文件数量:4 热度:98 最近下载:2025-08-26 05:31:01
    {"Questione.Di.Tempo.Sub.Ita.srt": 233338, "Questione.Di.Tempo.Sub.Ita.Forced.srt": 1534, "Questione.Di.Tempo.2013.iTALiAN.BRRip.XviD.BLUWORLD.avi": 2049241088}
创建时间: 2018-10-28 01:59:41 大小:1.91 GB 文件数量:3 热度:41 最近下载:2025-08-02 13:05:12
    {"cover.jpg": 149728, "Blurred Lines.cue": 3109, "12 - Pressure.flac": 28864117, "03 - Ooo La La.flac": 35350377, "07 - Feel Good.flac": 24467639, "Folder.auCDtect.txt": 6774, "06 - Give It 2 U.flac": 30422778, "01 - Blurred Lines.flac": 30764293, "05 - ...
创建时间: 2018-10-28 02:00:17 大小:438.1 MB 文件数量:21 热度:125 最近下载:2025-09-25 02:06:02
    {"Scans": {"Disc.jpg": 1731373, "Front.jpg": 2141492, "Inside-1.jpg": 1583190, "Inside-2.jpg": 3069081, "Inside-3.jpg": 1193660}, "foo_dr.txt": 1547, "Folder.auCDtect.txt": 1206, "Dewa Budjana - Joged Kahyangan.cue": 1290, "Dewa Budjana - Joged Kahyangan. ...
创建时间: 2018-10-28 02:00:25 大小:301.24 MB 文件数量:11 热度:14 最近下载:2024-11-18 16:17:02
    {"Info.nfo": 4424, "Cover.jpg": 71322, "P2PDL.com.nfo": 90, "02 - The Winery Dogs - Desire.mp3": 8929308, "13 - The Winery Dogs - Regret.mp3": 11664852, "01 - The Winery Dogs - Elevate.mp3": 12153865, "09 - The Winery Dogs - Damaged.mp3": 8457016, "12 - ...
创建时间: 2018-10-28 02:00:49 大小:139.05 MB 文件数量:16 热度:43 最近下载:2025-08-05 05:58:02
    {"Cover.jpg": 105326, "03. Blue Moon.mp3": 7798114, "08. The Vision.mp3": 9080204, "10. Yacht Club.mp3": 7346718, "18. Love Theme.mp3": 8158604, "09. House Party.mp3": 6447061, "12. Average Joe.mp3": 8228612, "13. Human Static.mp3": 7272530, "15. Ipanema ...
创建时间: 2018-10-28 02:00:59 大小:157.67 MB 文件数量:21 热度:70 最近下载:2025-08-23 17:04:01
    {"2 to Tangle (2013) 720p HDrip X264 Solar.mp4": 1096623082}
创建时间: 2018-10-28 02:01:22 大小:1.02 GB 文件数量:1 热度:24 最近下载:2025-09-21 16:21:05
    {"iYuTero - Free adult clips daily!.URL": 202, "Hanna.Keep.It.Inside.YoungLegalPorn.2013.HD_iyutero.com.mp4": 733894685}
创建时间: 2018-10-28 02:01:32 大小:699.9 MB 文件数量:2 热度:127 最近下载:2025-10-03 14:57:01
    {"Святитель Лука Крымский - Господня Пасха - 2013.pdf": 2329285, "Святитель Лука Крымский - Господня Пасха - 2013.djvu": 2027892}
创建时间: 2018-10-28 02:02:56 大小:4.16 MB 文件数量:2 热度:16 最近下载:2024-11-18 16:31:01
    {"www.YTS.AM.jpg": 58132, "Black.Marigolds.2013.720p.WEBRip.x264-[YTS.AM].mp4": 732159461}
创建时间: 2018-10-28 02:04:12 大小:698.3 MB 文件数量:2 热度:31 最近下载:2025-10-04 05:37:01